sensor_id;sensor_type;location;lat;lon;timestamp;P1;durP1;ratioP1;P2;durP2;ratioP2
33266;SDS011;19638;49.080;11.896;2022-09-13T00:03:54;25.20;;;10.80;;
33266;SDS011;19638;49.080;11.896;2022-09-13T00:07:59;17.98;;;8.52;;
33266;SDS011;19638;49.080;11.896;2022-09-13T00:16:36;19.52;;;9.38;;
33266;SDS011;19638;49.080;11.896;2022-09-13T00:20:39;34.35;;;11.75;;
33266;SDS011;19638;49.080;11.896;2022-09-13T00:24:43;25.25;;;10.75;;
33266;SDS011;19638;49.080;11.896;2022-09-13T00:28:47;22.23;;;10.57;;
33266;SDS011;19638;49.080;11.896;2022-09-13T00:37:26;21.38;;;8.98;;
33266;SDS011;19638;49.080;11.896;2022-09-13T00:41:30;21.38;;;10.07;;
33266;SDS011;19638;49.080;11.896;2022-09-13T00:45:34;46.38;;;10.52;;
33266;SDS011;19638;49.080;11.896;2022-09-13T00:49:37;34.15;;;12.73;;
33266;SDS011;19638;49.080;11.896;2022-09-13T00:53:42;28.73;;;11.93;;
33266;SDS011;19638;49.080;11.896;2022-09-13T01:02:24;25.15;;;11.75;;
33266;SDS011;19638;49.080;11.896;2022-09-13T01:06:29;33.85;;;12.32;;
33266;SDS011;19638;49.080;11.896;2022-09-13T01:10:35;32.63;;;12.07;;
33266;SDS011;19638;49.080;11.896;2022-09-13T01:14:40;25.35;;;10.50;;
33266;SDS011;19638;49.080;11.896;2022-09-13T01:32:59;20.52;;;9.48;;
33266;SDS011;19638;49.080;11.896;2022-09-13T01:37:37;17.05;;;8.75;;
33266;SDS011;19638;49.080;11.896;2022-09-13T01:41:52;21.20;;;9.73;;
33266;SDS011;19638;49.080;11.896;2022-09-13T01:46:03;23.02;;;10.13;;
33266;SDS011;19638;49.080;11.896;2022-09-13T01:50:10;25.58;;;9.80;;
33266;SDS011;19638;49.080;11.896;2022-09-13T01:54:17;24.27;;;10.40;;
33266;SDS011;19638;49.080;11.896;2022-09-13T02:03:00;26.10;;;10.52;;
33266;SDS011;19638;49.080;11.896;2022-09-13T02:07:09;25.53;;;11.03;;
33266;SDS011;19638;49.080;11.896;2022-09-13T02:11:16;32.70;;;11.63;;
33266;SDS011;19638;49.080;11.896;2022-09-13T02:20:37;18.30;;;9.33;;
33266;SDS011;19638;49.080;11.896;2022-09-13T02:24:50;26.55;;;10.13;;
33266;SDS011;19638;49.080;11.896;2022-09-13T02:28:57;25.52;;;10.93;;
33266;SDS011;19638;49.080;11.896;2022-09-13T02:33:04;16.42;;;8.80;;
33266;SDS011;19638;49.080;11.896;2022-09-13T02:37:11;18.20;;;8.98;;
33266;SDS011;19638;49.080;11.896;2022-09-13T02:41:18;20.63;;;9.38;;
33266;SDS011;19638;49.080;11.896;2022-09-13T02:45:28;19.00;;;8.95;;
33266;SDS011;19638;49.080;11.896;2022-09-13T02:49:37;17.07;;;8.70;;
33266;SDS011;19638;49.080;11.896;2022-09-13T02:54:12;17.98;;;8.73;;
33266;SDS011;19638;49.080;11.896;2022-09-13T02:58:27;19.42;;;8.93;;
33266;SDS011;19638;49.080;11.896;2022-09-13T03:02:35;18.38;;;9.60;;
33266;SDS011;19638;49.080;11.896;2022-09-13T03:11:17;48.93;;;11.27;;
33266;SDS011;19638;49.080;11.896;2022-09-13T03:15:36;301.20;;;22.50;;
33266;SDS011;19638;49.080;11.896;2022-09-13T03:19:53;452.97;;;32.70;;
33266;SDS011;19638;49.080;11.896;2022-09-13T03:28:41;1068.30;;;54.40;;
33266;SDS011;19638;49.080;11.896;2022-09-13T03:32:59;107.20;;;22.67;;
33266;SDS011;19638;49.080;11.896;2022-09-13T03:41:35;894.92;;;46.42;;
33266;SDS011;19638;49.080;11.896;2022-09-13T03:45:44;1079.10;;;58.88;;
33266;SDS011;19638;49.080;11.896;2022-09-13T03:49:52;1037.10;;;53.83;;
33266;SDS011;19638;49.080;11.896;2022-09-13T03:53:59;994.00;;;52.70;;
33266;SDS011;19638;49.080;11.896;2022-09-13T04:02:35;102.90;;;19.55;;
33266;SDS011;19638;49.080;11.896;2022-09-13T04:06:40;373.23;;;24.63;;
33266;SDS011;19638;49.080;11.896;2022-09-13T04:10:43;224.70;;;18.75;;
33266;SDS011;19638;49.080;11.896;2022-09-13T04:14:46;176.32;;;18.60;;
33266;SDS011;19638;49.080;11.896;2022-09-13T04:18:49;231.10;;;17.65;;
33266;SDS011;19638;49.080;11.896;2022-09-13T04:22:54;345.98;;;24.10;;
33266;SDS011;19638;49.080;11.896;2022-09-13T04:31:32;365.27;;;26.42;;
33266;SDS011;19638;49.080;11.896;2022-09-13T04:35:35;517.10;;;41.67;;
33266;SDS011;19638;49.080;11.896;2022-09-13T04:44:15;126.22;;;17.50;;
33266;SDS011;19638;49.080;11.896;2022-09-13T04:48:19;124.00;;;17.17;;
33266;SDS011;19638;49.080;11.896;2022-09-13T04:52:22;127.70;;;16.38;;
33266;SDS011;19638;49.080;11.896;2022-09-13T04:56:25;110.20;;;15.65;;
33266;SDS011;19638;49.080;11.896;2022-09-13T05:00:30;132.60;;;15.40;;
33266;SDS011;19638;49.080;11.896;2022-09-13T05:04:34;141.85;;;16.48;;
33266;SDS011;19638;49.080;11.896;2022-09-13T05:08:37;211.13;;;21.77;;
33266;SDS011;19638;49.080;11.896;2022-09-13T05:17:15;105.28;;;17.20;;
33266;SDS011;19638;49.080;11.896;2022-09-13T05:21:19;392.88;;;26.10;;
33266;SDS011;19638;49.080;11.896;2022-09-13T05:29:57;260.13;;;21.40;;
33266;SDS011;19638;49.080;11.896;2022-09-13T05:34:02;256.05;;;21.98;;
33266;SDS011;19638;49.080;11.896;2022-09-13T05:38:07;342.35;;;23.80;;
33266;SDS011;19638;49.080;11.896;2022-09-13T05:46:47;163.50;;;18.33;;
33266;SDS011;19638;49.080;11.896;2022-09-13T05:50:52;123.18;;;17.30;;
33266;SDS011;19638;49.080;11.896;2022-09-13T05:54:58;216.20;;;20.48;;
33266;SDS011;19638;49.080;11.896;2022-09-13T05:59:02;241.27;;;21.38;;
33266;SDS011;19638;49.080;11.896;2022-09-13T06:03:05;250.60;;;24.13;;
33266;SDS011;19638;49.080;11.896;2022-09-13T06:07:11;135.80;;;17.92;;
33266;SDS011;19638;49.080;11.896;2022-09-13T06:15:48;275.65;;;28.85;;
33266;SDS011;19638;49.080;11.896;2022-09-13T06:19:51;373.02;;;31.23;;
33266;SDS011;19638;49.080;11.896;2022-09-13T06:23:55;172.05;;;20.25;;
33266;SDS011;19638;49.080;11.896;2022-09-13T06:27:58;167.50;;;22.58;;
33266;SDS011;19638;49.080;11.896;2022-09-13T06:32:02;379.38;;;29.77;;
33266;SDS011;19638;49.080;11.896;2022-09-13T06:36:06;277.42;;;23.98;;
33266;SDS011;19638;49.080;11.896;2022-09-13T06:44:48;250.98;;;24.73;;
33266;SDS011;19638;49.080;11.896;2022-09-13T06:48:51;114.60;;;20.50;;
33266;SDS011;19638;49.080;11.896;2022-09-13T06:52:55;190.98;;;23.58;;
33266;SDS011;19638;49.080;11.896;2022-09-13T07:01:37;139.65;;;19.67;;
33266;SDS011;19638;49.080;11.896;2022-09-13T07:05:41;59.85;;;18.67;;
33266;SDS011;19638;49.080;11.896;2022-09-13T07:09:44;52.72;;;18.05;;
33266;SDS011;19638;49.080;11.896;2022-09-13T07:18:26;34.45;;;16.67;;
33266;SDS011;19638;49.080;11.896;2022-09-13T07:22:29;28.33;;;14.73;;
33266;SDS011;19638;49.080;11.896;2022-09-13T07:31:09;23.02;;;14.43;;
33266;SDS011;19638;49.080;11.896;2022-09-13T07:35:15;20.58;;;13.43;;
33266;SDS011;19638;49.080;11.896;2022-09-13T07:43:52;25.58;;;13.98;;
33266;SDS011;19638;49.080;11.896;2022-09-13T07:52:35;20.38;;;12.73;;
33266;SDS011;19638;49.080;11.896;2022-09-13T07:56:39;19.70;;;12.43;;
33266;SDS011;19638;49.080;11.896;2022-09-13T08:05:16;15.98;;;11.20;;
33266;SDS011;19638;49.080;11.896;2022-09-13T08:09:20;18.88;;;12.32;;
33266;SDS011;19638;49.080;11.896;2022-09-13T08:13:23;16.52;;;10.95;;
33266;SDS011;19638;49.080;11.896;2022-09-13T08:17:26;16.13;;;10.82;;
33266;SDS011;19638;49.080;11.896;2022-09-13T08:21:31;13.55;;;10.77;;
33266;SDS011;19638;49.080;11.896;2022-09-13T08:25:37;14.35;;;9.43;;
33266;SDS011;19638;49.080;11.896;2022-09-13T08:34:15;11.95;;;9.40;;
33266;SDS011;19638;49.080;11.896;2022-09-13T08:38:18;13.05;;;8.70;;
33266;SDS011;19638;49.080;11.896;2022-09-13T08:47:08;11.77;;;8.45;;
33266;SDS011;19638;49.080;11.896;2022-09-13T08:51:30;10.00;;;7.75;;
33266;SDS011;19638;49.080;11.896;2022-09-13T08:55:39;9.35;;;7.38;;
33266;SDS011;19638;49.080;11.896;2022-09-13T08:59:51;9.70;;;7.45;;
33266;SDS011;19638;49.080;11.896;2022-09-13T09:04:01;7.68;;;6.35;;
33266;SDS011;19638;49.080;11.896;2022-09-13T09:08:14;7.05;;;6.35;;
33266;SDS011;19638;49.080;11.896;2022-09-13T09:16:57;7.90;;;6.43;;
33266;SDS011;19638;49.080;11.896;2022-09-13T09:21:05;7.10;;;6.38;;
33266;SDS011;19638;49.080;11.896;2022-09-13T09:29:41;7.50;;;5.40;;
33266;SDS011;19638;49.080;11.896;2022-09-13T09:33:55;5.43;;;4.90;;
33266;SDS011;19638;49.080;11.896;2022-09-13T09:38:25;5.70;;;5.10;;
33266;SDS011;19638;49.080;11.896;2022-09-13T09:42:37;6.20;;;4.57;;
33266;SDS011;19638;49.080;11.896;2022-09-13T09:46:44;5.90;;;4.10;;
33266;SDS011;19638;49.080;11.896;2022-09-13T09:50:52;4.13;;;3.72;;
33266;SDS011;19638;49.080;11.896;2022-09-13T09:59:31;11.63;;;4.13;;
33266;SDS011;19638;49.080;11.896;2022-09-13T10:03:34;6.65;;;4.30;;
33266;SDS011;19638;49.080;11.896;2022-09-13T10:12:26;6.53;;;3.90;;
33266;SDS011;19638;49.080;11.896;2022-09-13T10:16:32;4.88;;;4.47;;
33266;SDS011;19638;49.080;11.896;2022-09-13T10:25:24;3.88;;;3.58;;
33266;SDS011;19638;49.080;11.896;2022-09-13T10:29:28;5.00;;;4.03;;
33266;SDS011;19638;49.080;11.896;2022-09-13T10:33:32;4.45;;;3.60;;
33266;SDS011;19638;49.080;11.896;2022-09-13T10:37:39;3.60;;;3.30;;
33266;SDS011;19638;49.080;11.896;2022-09-13T10:41:49;7.25;;;3.67;;
33266;SDS011;19638;49.080;11.896;2022-09-13T10:45:55;3.47;;;3.17;;
33266;SDS011;19638;49.080;11.896;2022-09-13T10:50:17;4.28;;;3.78;;
33266;SDS011;19638;49.080;11.896;2022-09-13T10:54:22;4.68;;;3.85;;
33266;SDS011;19638;49.080;11.896;2022-09-13T10:58:27;3.83;;;3.53;;
33266;SDS011;19638;49.080;11.896;2022-09-13T11:02:36;5.97;;;3.72;;
33266;SDS011;19638;49.080;11.896;2022-09-13T11:07:03;5.07;;;3.85;;
33266;SDS011;19638;49.080;11.896;2022-09-13T11:11:18;3.97;;;3.60;;
33266;SDS011;19638;49.080;11.896;2022-09-13T11:15:32;3.90;;;3.13;;
33266;SDS011;19638;49.080;11.896;2022-09-13T11:19:45;3.83;;;3.53;;
33266;SDS011;19638;49.080;11.896;2022-09-13T11:24:26;7.10;;;3.53;;
33266;SDS011;19638;49.080;11.896;2022-09-13T11:28:42;5.22;;;3.53;;
33266;SDS011;19638;49.080;11.896;2022-09-13T11:37:33;3.63;;;3.33;;
33266;SDS011;19638;49.080;11.896;2022-09-13T11:41:45;3.60;;;3.30;;
33266;SDS011;19638;49.080;11.896;2022-09-13T11:46:19;4.07;;;3.72;;
33266;SDS011;19638;49.080;11.896;2022-09-13T11:50:35;5.22;;;3.80;;
33266;SDS011;19638;49.080;11.896;2022-09-13T11:54:56;4.55;;;3.55;;
33266;SDS011;19638;49.080;11.896;2022-09-13T11:59:08;6.55;;;3.65;;
33266;SDS011;19638;49.080;11.896;2022-09-13T12:07:51;3.92;;;3.58;;
33266;SDS011;19638;49.080;11.896;2022-09-13T12:12:02;3.60;;;3.30;;
33266;SDS011;19638;49.080;11.896;2022-09-13T12:16:07;7.07;;;3.28;;
33266;SDS011;19638;49.080;11.896;2022-09-13T12:20:16;6.65;;;3.75;;
33266;SDS011;19638;49.080;11.896;2022-09-13T12:24:33;7.07;;;3.85;;
33266;SDS011;19638;49.080;11.896;2022-09-13T12:28:43;4.38;;;3.97;;
33266;SDS011;19638;49.080;11.896;2022-09-13T12:37:25;4.88;;;3.55;;
33266;SDS011;19638;49.080;11.896;2022-09-13T12:41:44;4.43;;;3.88;;
33266;SDS011;19638;49.080;11.896;2022-09-13T12:50:32;4.75;;;3.40;;
33266;SDS011;19638;49.080;11.896;2022-09-13T12:55:10;3.60;;;3.25;;
33266;SDS011;19638;49.080;11.896;2022-09-13T12:59:52;4.45;;;4.05;;
33266;SDS011;19638;49.080;11.896;2022-09-13T13:08:27;4.68;;;3.85;;
33266;SDS011;19638;49.080;11.896;2022-09-13T13:12:32;4.80;;;4.07;;
33266;SDS011;19638;49.080;11.896;2022-09-13T13:16:38;6.45;;;4.28;;
33266;SDS011;19638;49.080;11.896;2022-09-13T13:20:46;4.40;;;4.00;;
33266;SDS011;19638;49.080;11.896;2022-09-13T13:29:33;4.95;;;4.55;;
33266;SDS011;19638;49.080;11.896;2022-09-13T13:38:37;4.10;;;3.60;;
33266;SDS011;19638;49.080;11.896;2022-09-13T13:42:49;5.47;;;3.85;;
33266;SDS011;19638;49.080;11.896;2022-09-13T13:46:53;7.00;;;4.07;;
33266;SDS011;19638;49.080;11.896;2022-09-13T13:56:26;6.03;;;3.97;;
33266;SDS011;19638;49.080;11.896;2022-09-13T14:00:49;6.60;;;4.32;;
33266;SDS011;19638;49.080;11.896;2022-09-13T14:09:34;5.65;;;4.32;;
33266;SDS011;19638;49.080;11.896;2022-09-13T14:13:44;5.40;;;4.70;;
33266;SDS011;19638;49.080;11.896;2022-09-13T14:22:39;7.30;;;4.28;;
33266;SDS011;19638;49.080;11.896;2022-09-13T14:26:45;5.10;;;4.07;;
33266;SDS011;19638;49.080;11.896;2022-09-13T14:35:26;4.70;;;3.92;;
33266;SDS011;19638;49.080;11.896;2022-09-13T14:39:31;4.32;;;3.92;;
33266;SDS011;19638;49.080;11.896;2022-09-13T14:48:25;4.55;;;3.72;;
33266;SDS011;19638;49.080;11.896;2022-09-13T14:52:32;6.82;;;3.90;;
33266;SDS011;19638;49.080;11.896;2022-09-13T14:56:39;5.10;;;3.85;;
33266;SDS011;19638;49.080;11.896;2022-09-13T15:00:45;5.20;;;4.22;;
33266;SDS011;19638;49.080;11.896;2022-09-13T15:04:54;4.57;;;3.90;;
33266;SDS011;19638;49.080;11.896;2022-09-13T15:13:34;4.50;;;4.10;;
33266;SDS011;19638;49.080;11.896;2022-09-13T15:17:49;7.90;;;5.60;;
33266;SDS011;19638;49.080;11.896;2022-09-13T15:22:02;7.90;;;4.00;;
33266;SDS011;19638;49.080;11.896;2022-09-13T15:30:37;3.75;;;3.40;;
33266;SDS011;19638;49.080;11.896;2022-09-13T15:39:20;5.10;;;4.00;;
33266;SDS011;19638;49.080;11.896;2022-09-13T15:43:23;4.20;;;3.72;;
33266;SDS011;19638;49.080;11.896;2022-09-13T15:47:26;3.92;;;3.63;;
33266;SDS011;19638;49.080;11.896;2022-09-13T15:56:08;7.68;;;3.60;;
33266;SDS011;19638;49.080;11.896;2022-09-13T16:00:17;5.18;;;3.50;;
33266;SDS011;19638;49.080;11.896;2022-09-13T16:08:56;4.85;;;4.10;;
33266;SDS011;19638;49.080;11.896;2022-09-13T16:13:02;6.43;;;3.70;;
33266;SDS011;19638;49.080;11.896;2022-09-13T16:17:06;5.55;;;3.60;;
33266;SDS011;19638;49.080;11.896;2022-09-13T16:25:44;7.00;;;3.78;;
33266;SDS011;19638;49.080;11.896;2022-09-13T16:29:49;4.97;;;3.80;;
33266;SDS011;19638;49.080;11.896;2022-09-13T16:33:52;7.60;;;3.75;;
33266;SDS011;19638;49.080;11.896;2022-09-13T16:37:55;4.63;;;4.18;;
33266;SDS011;19638;49.080;11.896;2022-09-13T16:41:59;3.97;;;3.67;;
33266;SDS011;19638;49.080;11.896;2022-09-13T16:46:06;5.43;;;3.95;;
33266;SDS011;19638;49.080;11.896;2022-09-13T16:50:10;6.45;;;3.97;;
33266;SDS011;19638;49.080;11.896;2022-09-13T16:54:13;7.60;;;3.80;;
33266;SDS011;19638;49.080;11.896;2022-09-13T17:02:55;12.40;;;3.70;;
33266;SDS011;19638;49.080;11.896;2022-09-13T17:06:58;4.38;;;4.00;;
33266;SDS011;19638;49.080;11.896;2022-09-13T17:11:03;4.25;;;3.85;;
33266;SDS011;19638;49.080;11.896;2022-09-13T17:19:46;4.43;;;3.88;;
33266;SDS011;19638;49.080;11.896;2022-09-13T17:23:49;6.68;;;3.83;;
33266;SDS011;19638;49.080;11.896;2022-09-13T17:27:53;5.07;;;3.95;;
33266;SDS011;19638;49.080;11.896;2022-09-13T17:31:56;4.72;;;3.78;;
33266;SDS011;19638;49.080;11.896;2022-09-13T17:36:02;8.15;;;4.18;;
33266;SDS011;19638;49.080;11.896;2022-09-13T17:40:08;6.28;;;3.97;;
33266;SDS011;19638;49.080;11.896;2022-09-13T17:48:48;4.60;;;4.07;;
33266;SDS011;19638;49.080;11.896;2022-09-13T17:52:54;5.43;;;4.15;;
33266;SDS011;19638;49.080;11.896;2022-09-13T17:56:57;7.57;;;3.85;;
33266;SDS011;19638;49.080;11.896;2022-09-13T18:05:37;8.40;;;4.78;;
33266;SDS011;19638;49.080;11.896;2022-09-13T18:09:42;5.50;;;4.57;;
33266;SDS011;19638;49.080;11.896;2022-09-13T18:13:45;6.43;;;4.57;;
33266;SDS011;19638;49.080;11.896;2022-09-13T18:17:49;6.90;;;5.03;;
33266;SDS011;19638;49.080;11.896;2022-09-13T18:21:52;16.45;;;7.57;;
33266;SDS011;19638;49.080;11.896;2022-09-13T18:30:30;12.88;;;7.88;;
33266;SDS011;19638;49.080;11.896;2022-09-13T18:34:33;10.88;;;6.88;;
33266;SDS011;19638;49.080;11.896;2022-09-13T18:43:13;13.52;;;9.25;;
33266;SDS011;19638;49.080;11.896;2022-09-13T18:47:17;13.55;;;8.25;;
33266;SDS011;19638;49.080;11.896;2022-09-13T18:51:22;12.43;;;7.93;;
33266;SDS011;19638;49.080;11.896;2022-09-13T19:00:04;12.77;;;8.45;;
33266;SDS011;19638;49.080;11.896;2022-09-13T19:04:11;11.73;;;7.32;;
33266;SDS011;19638;49.080;11.896;2022-09-13T19:12:50;10.45;;;7.22;;
33266;SDS011;19638;49.080;11.896;2022-09-13T19:16:53;13.65;;;8.60;;
33266;SDS011;19638;49.080;11.896;2022-09-13T19:25:33;12.38;;;8.60;;
33266;SDS011;19638;49.080;11.896;2022-09-13T19:29:36;8.98;;;7.60;;
33266;SDS011;19638;49.080;11.896;2022-09-13T19:38:19;17.20;;;10.73;;
33266;SDS011;19638;49.080;11.896;2022-09-13T19:42:22;19.45;;;10.43;;
33266;SDS011;19638;49.080;11.896;2022-09-13T19:51:21;13.40;;;8.45;;
33266;SDS011;19638;49.080;11.896;2022-09-13T19:55:28;11.77;;;8.18;;
33266;SDS011;19638;49.080;11.896;2022-09-13T20:04:08;14.85;;;9.02;;
33266;SDS011;19638;49.080;11.896;2022-09-13T20:08:13;18.15;;;10.40;;
33266;SDS011;19638;49.080;11.896;2022-09-13T20:12:17;20.88;;;11.38;;
33266;SDS011;19638;49.080;11.896;2022-09-13T20:16:25;18.63;;;10.52;;
33266;SDS011;19638;49.080;11.896;2022-09-13T20:20:29;18.88;;;10.63;;
33266;SDS011;19638;49.080;11.896;2022-09-13T20:24:32;22.00;;;11.18;;
33266;SDS011;19638;49.080;11.896;2022-09-13T20:28:36;16.20;;;9.68;;
33266;SDS011;19638;49.080;11.896;2022-09-13T20:32:40;14.90;;;9.10;;
33266;SDS011;19638;49.080;11.896;2022-09-13T20:41:20;17.38;;;10.40;;
33266;SDS011;19638;49.080;11.896;2022-09-13T20:45:24;18.60;;;10.35;;
33266;SDS011;19638;49.080;11.896;2022-09-13T20:49:28;16.27;;;9.65;;
33266;SDS011;19638;49.080;11.896;2022-09-13T20:53:31;14.73;;;10.90;;
33266;SDS011;19638;49.080;11.896;2022-09-13T20:57:35;16.48;;;10.35;;
33266;SDS011;19638;49.080;11.896;2022-09-13T21:01:39;17.67;;;10.50;;
33266;SDS011;19638;49.080;11.896;2022-09-13T21:05:43;16.92;;;10.65;;
33266;SDS011;19638;49.080;11.896;2022-09-13T21:09:46;17.15;;;10.77;;
33266;SDS011;19638;49.080;11.896;2022-09-13T21:18:23;20.02;;;11.02;;
33266;SDS011;19638;49.080;11.896;2022-09-13T21:22:26;17.98;;;11.30;;
33266;SDS011;19638;49.080;11.896;2022-09-13T21:26:29;23.52;;;12.02;;
33266;SDS011;19638;49.080;11.896;2022-09-13T21:30:33;16.52;;;11.45;;
33266;SDS011;19638;49.080;11.896;2022-09-13T21:34:38;22.27;;;11.77;;
33266;SDS011;19638;49.080;11.896;2022-09-13T21:38:41;20.67;;;11.90;;
33266;SDS011;19638;49.080;11.896;2022-09-13T21:47:18;19.60;;;11.82;;
33266;SDS011;19638;49.080;11.896;2022-09-13T21:51:23;21.23;;;11.52;;
33266;SDS011;19638;49.080;11.896;2022-09-13T21:55:27;22.60;;;10.65;;
33266;SDS011;19638;49.080;11.896;2022-09-13T21:59:31;24.42;;;12.70;;
33266;SDS011;19638;49.080;11.896;2022-09-13T22:08:14;23.05;;;12.05;;
33266;SDS011;19638;49.080;11.896;2022-09-13T22:12:17;24.17;;;13.23;;
33266;SDS011;19638;49.080;11.896;2022-09-13T22:16:24;23.23;;;12.85;;
33266;SDS011;19638;49.080;11.896;2022-09-13T22:20:28;23.98;;;12.60;;
33266;SDS011;19638;49.080;11.896;2022-09-13T22:29:10;20.90;;;12.93;;
33266;SDS011;19638;49.080;11.896;2022-09-13T22:33:14;22.67;;;11.05;;
33266;SDS011;19638;49.080;11.896;2022-09-13T22:37:17;26.95;;;13.15;;
33266;SDS011;19638;49.080;11.896;2022-09-13T22:41:22;20.77;;;11.90;;
33266;SDS011;19638;49.080;11.896;2022-09-13T22:50:03;23.00;;;13.63;;
33266;SDS011;19638;49.080;11.896;2022-09-13T22:54:07;26.90;;;13.75;;
33266;SDS011;19638;49.080;11.896;2022-09-13T22:58:11;23.77;;;13.98;;
33266;SDS011;19638;49.080;11.896;2022-09-13T23:02:15;22.92;;;13.02;;
33266;SDS011;19638;49.080;11.896;2022-09-13T23:10:55;26.75;;;14.30;;
33266;SDS011;19638;49.080;11.896;2022-09-13T23:14:59;29.08;;;13.95;;
33266;SDS011;19638;49.080;11.896;2022-09-13T23:19:03;28.40;;;14.52;;
33266;SDS011;19638;49.080;11.896;2022-09-13T23:23:06;30.83;;;14.77;;
33266;SDS011;19638;49.080;11.896;2022-09-13T23:31:46;34.22;;;15.88;;
33266;SDS011;19638;49.080;11.896;2022-09-13T23:35:49;32.13;;;16.92;;
33266;SDS011;19638;49.080;11.896;2022-09-13T23:39:58;35.63;;;16.73;;
33266;SDS011;19638;49.080;11.896;2022-09-13T23:44:02;32.00;;;16.80;;
33266;SDS011;19638;49.080;11.896;2022-09-13T23:48:07;31.58;;;17.65;;
33266;SDS011;19638;49.080;11.896;2022-09-13T23:56:47;30.60;;;16.50;;
